Terminal Aerodrome Forecast
Issued by NWS Quad Cities IA IL

Home | Current Version | Previous Version | Text Only | Print | Product List | Glossary On
Versions: 1 2 3 4 5 6 7 8 9 10 11 12 13 14 15 16 17 18 19 20 21 22
000
FTUS43 KDVN 051141
TAFDBQ
TAF
KDBQ 051141Z 0512/0612 05008KT 3SM -RA BR BKN006 OVC020
      TEMPO 0512/0514 1/2SM -RA FG OVC004
     FM051400 08010KT 5SM BR OVC010
     FM051800 07010KT P6SM VCSH OVC025
     FM052300 09008KT P6SM BKN030=

USA.gov is the U.S. government's official web portal to all federal, state and local government web resources and services.